FNG weather

Fada N'gourma Airport
Fada N'gourma, Gourma, Burkina Faso

Public forecast

Using degrees Celsius for public forecast. Weather courtesy of forecast.io.

Current aviation weather report (METAR) for Fada N'gourma Airport

Report is more than 6 hours old.

Retrieved 2009/09/21 17:00 UTC (10 years ago):

DFEF 211700Z 00000KT 9999 FEW0226 TCU BKN260 30/25

Closest aviation forecast (TAF) to Fada N'gourma Airport

Closest forecast is Ouagadougou Airport, 111.0 nm (205.5 km) W. Retrieved 2020/02/23 06:00 UTC (5 hours ago):

TAF DFFD 230500Z 2306/2412 06010KT 8000 NSC TEMPO 2306/2310 3500 DU TEMPO 2317/2320 4000 DU